sensor_id;sensor_type;location;lat;lon;timestamp;temperature;humidity
16871;DHT22;8552;48.120;-1.456;2022-07-29T00:01:48;17.00;99.90
16871;DHT22;8552;48.120;-1.456;2022-07-29T00:04:14;17.00;99.90
16871;DHT22;8552;48.120;-1.456;2022-07-29T00:06:40;17.00;99.90
16871;DHT22;8552;48.120;-1.456;2022-07-29T00:09:06;17.00;99.90
16871;DHT22;8552;48.120;-1.456;2022-07-29T00:11:32;17.00;99.90
16871;DHT22;8552;48.120;-1.456;2022-07-29T00:13:58;17.00;99.90
16871;DHT22;8552;48.120;-1.456;2022-07-29T00:16:23;17.10;99.90
16871;DHT22;8552;48.120;-1.456;2022-07-29T00:18:49;17.10;99.90
16871;DHT22;8552;48.120;-1.456;2022-07-29T00:21:15;17.10;99.90
16871;DHT22;8552;48.120;-1.456;2022-07-29T00:23:41;17.00;99.90
16871;DHT22;8552;48.120;-1.456;2022-07-29T00:26:06;17.00;99.90
16871;DHT22;8552;48.120;-1.456;2022-07-29T00:28:32;17.00;99.90
16871;DHT22;8552;48.120;-1.456;2022-07-29T00:30:58;17.00;99.90
16871;DHT22;8552;48.120;-1.456;2022-07-29T00:33:23;16.90;99.90
16871;DHT22;8552;48.120;-1.456;2022-07-29T00:35:49;16.90;99.90
16871;DHT22;8552;48.120;-1.456;2022-07-29T00:38:17;16.90;99.90
16871;DHT22;8552;48.120;-1.456;2022-07-29T00:40:44;16.80;99.90
16871;DHT22;8552;48.120;-1.456;2022-07-29T00:43:10;16.80;99.90
16871;DHT22;8552;48.120;-1.456;2022-07-29T00:45:36;16.80;99.90
16871;DHT22;8552;48.120;-1.456;2022-07-29T00:48:03;16.70;99.90
16871;DHT22;8552;48.120;-1.456;2022-07-29T00:50:30;16.70;99.90
16871;DHT22;8552;48.120;-1.456;2022-07-29T00:52:56;16.70;99.90
16871;DHT22;8552;48.120;-1.456;2022-07-29T00:55:22;16.70;99.90
16871;DHT22;8552;48.120;-1.456;2022-07-29T00:57:48;16.70;99.90
16871;DHT22;8552;48.120;-1.456;2022-07-29T01:00:21;16.60;99.90
16871;DHT22;8552;48.120;-1.456;2022-07-29T01:02:48;16.60;99.90
16871;DHT22;8552;48.120;-1.456;2022-07-29T01:05:15;16.60;99.90
16871;DHT22;8552;48.120;-1.456;2022-07-29T01:07:42;16.60;99.90
16871;DHT22;8552;48.120;-1.456;2022-07-29T01:10:09;16.60;99.90
16871;DHT22;8552;48.120;-1.456;2022-07-29T01:12:37;16.60;99.90
16871;DHT22;8552;48.120;-1.456;2022-07-29T01:15:05;16.60;99.90
16871;DHT22;8552;48.120;-1.456;2022-07-29T01:18:11;16.50;99.90
16871;DHT22;8552;48.120;-1.456;2022-07-29T01:29:07;16.50;99.90
16871;DHT22;8552;48.120;-1.456;2022-07-29T01:31:47;16.60;99.90
16871;DHT22;8552;48.120;-1.456;2022-07-29T01:37:18;16.60;99.90
16871;DHT22;8552;48.120;-1.456;2022-07-29T01:39:47;16.60;99.90
16871;DHT22;8552;48.120;-1.456;2022-07-29T01:42:15;16.60;99.90
16871;DHT22;8552;48.120;-1.456;2022-07-29T01:45:14;16.60;99.90
16871;DHT22;8552;48.120;-1.456;2022-07-29T01:50:44;16.70;99.90
16871;DHT22;8552;48.120;-1.456;2022-07-29T01:53:12;16.70;99.90
16871;DHT22;8552;48.120;-1.456;2022-07-29T01:55:43;16.70;99.90
16871;DHT22;8552;48.120;-1.456;2022-07-29T01:58:11;16.70;99.90
16871;DHT22;8552;48.120;-1.456;2022-07-29T02:00:38;16.80;99.90
16871;DHT22;8552;48.120;-1.456;2022-07-29T02:03:08;16.90;99.90
16871;DHT22;8552;48.120;-1.456;2022-07-29T02:05:35;17.10;99.90
16871;DHT22;8552;48.120;-1.456;2022-07-29T02:08:04;17.10;99.90
16871;DHT22;8552;48.120;-1.456;2022-07-29T02:10:33;17.10;99.90
16871;DHT22;8552;48.120;-1.456;2022-07-29T02:12:59;17.20;99.90
16871;DHT22;8552;48.120;-1.456;2022-07-29T02:15:29;17.40;99.90
16871;DHT22;8552;48.120;-1.456;2022-07-29T02:18:00;17.60;99.90
16871;DHT22;8552;48.120;-1.456;2022-07-29T02:20:28;17.70;99.90
16871;DHT22;8552;48.120;-1.456;2022-07-29T02:22:55;17.90;99.90
16871;DHT22;8552;48.120;-1.456;2022-07-29T02:25:23;17.80;99.90
16871;DHT22;8552;48.120;-1.456;2022-07-29T02:27:51;17.80;99.90
16871;DHT22;8552;48.120;-1.456;2022-07-29T02:30:18;17.80;99.90
16871;DHT22;8552;48.120;-1.456;2022-07-29T02:32:46;17.70;99.90
16871;DHT22;8552;48.120;-1.456;2022-07-29T02:35:14;17.70;99.90
16871;DHT22;8552;48.120;-1.456;2022-07-29T02:37:41;17.70;99.90
16871;DHT22;8552;48.120;-1.456;2022-07-29T02:40:12;17.70;99.90
16871;DHT22;8552;48.120;-1.456;2022-07-29T02:42:42;17.70;99.90
16871;DHT22;8552;48.120;-1.456;2022-07-29T02:45:10;17.70;99.90
16871;DHT22;8552;48.120;-1.456;2022-07-29T02:47:43;17.70;99.90
16871;DHT22;8552;48.120;-1.456;2022-07-29T02:50:20;17.80;99.90
16871;DHT22;8552;48.120;-1.456;2022-07-29T02:53:05;17.80;99.90
16871;DHT22;8552;48.120;-1.456;2022-07-29T02:55:37;17.80;99.90
16871;DHT22;8552;48.120;-1.456;2022-07-29T02:58:08;17.80;99.90
16871;DHT22;8552;48.120;-1.456;2022-07-29T03:00:38;17.90;99.90
16871;DHT22;8552;48.120;-1.456;2022-07-29T03:03:09;17.90;99.90
16871;DHT22;8552;48.120;-1.456;2022-07-29T03:05:37;18.10;99.90
16871;DHT22;8552;48.120;-1.456;2022-07-29T03:08:04;18.10;99.90
16871;DHT22;8552;48.120;-1.456;2022-07-29T03:10:31;18.00;99.90
16871;DHT22;8552;48.120;-1.456;2022-07-29T03:12:58;18.10;99.90
16871;DHT22;8552;48.120;-1.456;2022-07-29T03:15:24;18.10;99.90
16871;DHT22;8552;48.120;-1.456;2022-07-29T03:17:51;18.10;99.90
16871;DHT22;8552;48.120;-1.456;2022-07-29T03:20:18;18.10;99.90
16871;DHT22;8552;48.120;-1.456;2022-07-29T03:22:44;18.10;99.90
16871;DHT22;8552;48.120;-1.456;2022-07-29T03:25:16;18.10;99.90
16871;DHT22;8552;48.120;-1.456;2022-07-29T03:27:42;18.10;99.90
16871;DHT22;8552;48.120;-1.456;2022-07-29T03:30:09;18.10;99.90
16871;DHT22;8552;48.120;-1.456;2022-07-29T03:32:35;18.10;99.90
16871;DHT22;8552;48.120;-1.456;2022-07-29T03:35:02;18.10;99.90
16871;DHT22;8552;48.120;-1.456;2022-07-29T03:37:28;18.10;99.90
16871;DHT22;8552;48.120;-1.456;2022-07-29T03:39:57;18.00;99.90
16871;DHT22;8552;48.120;-1.456;2022-07-29T03:42:25;18.10;99.90
16871;DHT22;8552;48.120;-1.456;2022-07-29T03:44:52;18.10;99.90
16871;DHT22;8552;48.120;-1.456;2022-07-29T03:47:23;18.00;99.90
16871;DHT22;8552;48.120;-1.456;2022-07-29T03:49:52;18.10;99.90
16871;DHT22;8552;48.120;-1.456;2022-07-29T03:52:19;18.10;99.90
16871;DHT22;8552;48.120;-1.456;2022-07-29T03:54:46;18.10;99.90
16871;DHT22;8552;48.120;-1.456;2022-07-29T03:57:13;18.20;99.90
16871;DHT22;8552;48.120;-1.456;2022-07-29T03:59:41;18.10;99.90
16871;DHT22;8552;48.120;-1.456;2022-07-29T04:02:09;18.10;99.90
16871;DHT22;8552;48.120;-1.456;2022-07-29T04:04:36;18.10;99.90
16871;DHT22;8552;48.120;-1.456;2022-07-29T04:07:03;18.00;99.70
16871;DHT22;8552;48.120;-1.456;2022-07-29T04:09:29;18.00;99.90
16871;DHT22;8552;48.120;-1.456;2022-07-29T04:11:55;17.90;99.20
16871;DHT22;8552;48.120;-1.456;2022-07-29T04:14:21;17.90;99.50
16871;DHT22;8552;48.120;-1.456;2022-07-29T04:16:47;17.80;99.90
16871;DHT22;8552;48.120;-1.456;2022-07-29T04:19:12;17.80;99.90
16871;DHT22;8552;48.120;-1.456;2022-07-29T04:21:39;17.80;99.90
16871;DHT22;8552;48.120;-1.456;2022-07-29T04:24:06;17.70;99.70
16871;DHT22;8552;48.120;-1.456;2022-07-29T04:26:31;17.70;99.90
16871;DHT22;8552;48.120;-1.456;2022-07-29T04:28:57;17.60;99.90
16871;DHT22;8552;48.120;-1.456;2022-07-29T04:31:23;17.60;99.90
16871;DHT22;8552;48.120;-1.456;2022-07-29T04:33:48;17.50;99.90
16871;DHT22;8552;48.120;-1.456;2022-07-29T04:36:14;17.50;99.90
16871;DHT22;8552;48.120;-1.456;2022-07-29T04:38:40;17.50;99.90
16871;DHT22;8552;48.120;-1.456;2022-07-29T04:41:06;17.50;99.90
16871;DHT22;8552;48.120;-1.456;2022-07-29T04:43:33;17.40;99.90
16871;DHT22;8552;48.120;-1.456;2022-07-29T04:45:59;17.40;99.80
16871;DHT22;8552;48.120;-1.456;2022-07-29T04:48:25;17.40;99.90
16871;DHT22;8552;48.120;-1.456;2022-07-29T04:50:51;17.40;99.90
16871;DHT22;8552;48.120;-1.456;2022-07-29T04:53:17;17.40;99.90
16871;DHT22;8552;48.120;-1.456;2022-07-29T04:55:43;17.30;99.90
16871;DHT22;8552;48.120;-1.456;2022-07-29T04:58:10;17.30;99.50
16871;DHT22;8552;48.120;-1.456;2022-07-29T05:00:36;17.30;99.90
16871;DHT22;8552;48.120;-1.456;2022-07-29T05:03:01;17.30;99.90
16871;DHT22;8552;48.120;-1.456;2022-07-29T05:05:27;17.30;99.90
16871;DHT22;8552;48.120;-1.456;2022-07-29T05:07:53;17.30;99.90
16871;DHT22;8552;48.120;-1.456;2022-07-29T05:10:18;17.30;99.90
16871;DHT22;8552;48.120;-1.456;2022-07-29T05:12:44;17.30;99.90
16871;DHT22;8552;48.120;-1.456;2022-07-29T05:15:10;17.40;99.90
16871;DHT22;8552;48.120;-1.456;2022-07-29T05:17:35;17.40;99.90
16871;DHT22;8552;48.120;-1.456;2022-07-29T05:20:01;17.40;99.90
16871;DHT22;8552;48.120;-1.456;2022-07-29T05:22:27;17.50;99.90
16871;DHT22;8552;48.120;-1.456;2022-07-29T05:24:52;17.50;99.90
16871;DHT22;8552;48.120;-1.456;2022-07-29T05:27:18;17.60;99.90
16871;DHT22;8552;48.120;-1.456;2022-07-29T05:29:44;17.60;99.90
16871;DHT22;8552;48.120;-1.456;2022-07-29T05:32:09;17.60;99.90
16871;DHT22;8552;48.120;-1.456;2022-07-29T05:34:35;17.70;99.90
16871;DHT22;8552;48.120;-1.456;2022-07-29T05:37:01;17.70;99.90
16871;DHT22;8552;48.120;-1.456;2022-07-29T05:39:26;17.80;99.90
16871;DHT22;8552;48.120;-1.456;2022-07-29T05:41:52;17.80;99.90
16871;DHT22;8552;48.120;-1.456;2022-07-29T05:44:18;17.90;99.90
16871;DHT22;8552;48.120;-1.456;2022-07-29T05:46:43;17.90;99.90
16871;DHT22;8552;48.120;-1.456;2022-07-29T05:49:09;18.00;99.90
16871;DHT22;8552;48.120;-1.456;2022-07-29T05:51:35;18.00;99.90
16871;DHT22;8552;48.120;-1.456;2022-07-29T05:54:01;18.10;99.90
16871;DHT22;8552;48.120;-1.456;2022-07-29T05:56:27;18.10;99.90
16871;DHT22;8552;48.120;-1.456;2022-07-29T05:58:53;18.20;99.90
16871;DHT22;8552;48.120;-1.456;2022-07-29T06:01:19;18.30;99.90
16871;DHT22;8552;48.120;-1.456;2022-07-29T06:03:45;18.40;99.90
16871;DHT22;8552;48.120;-1.456;2022-07-29T06:06:11;18.50;99.90
16871;DHT22;8552;48.120;-1.456;2022-07-29T06:08:37;18.60;99.90
16871;DHT22;8552;48.120;-1.456;2022-07-29T06:11:04;18.70;99.90
16871;DHT22;8552;48.120;-1.456;2022-07-29T06:13:30;18.80;99.90
16871;DHT22;8552;48.120;-1.456;2022-07-29T06:15:56;19.00;99.90
16871;DHT22;8552;48.120;-1.456;2022-07-29T06:18:22;19.00;99.90
16871;DHT22;8552;48.120;-1.456;2022-07-29T06:20:51;19.20;99.90
16871;DHT22;8552;48.120;-1.456;2022-07-29T06:23:18;19.30;99.90
16871;DHT22;8552;48.120;-1.456;2022-07-29T06:25:44;19.40;99.90
16871;DHT22;8552;48.120;-1.456;2022-07-29T06:28:10;19.40;99.90
16871;DHT22;8552;48.120;-1.456;2022-07-29T06:30:36;19.50;99.90
16871;DHT22;8552;48.120;-1.456;2022-07-29T06:33:02;19.70;99.90
16871;DHT22;8552;48.120;-1.456;2022-07-29T06:35:28;19.80;99.90
16871;DHT22;8552;48.120;-1.456;2022-07-29T06:37:54;19.80;99.90
16871;DHT22;8552;48.120;-1.456;2022-07-29T06:40:19;19.90;99.90
16871;DHT22;8552;48.120;-1.456;2022-07-29T06:43:04;20.00;99.80
16871;DHT22;8552;48.120;-1.456;2022-07-29T06:45:33;20.10;99.90
16871;DHT22;8552;48.120;-1.456;2022-07-29T06:47:59;20.20;99.10
16871;DHT22;8552;48.120;-1.456;2022-07-29T06:50:24;20.30;99.30
16871;DHT22;8552;48.120;-1.456;2022-07-29T06:52:50;20.60;99.90
16871;DHT22;8552;48.120;-1.456;2022-07-29T06:55:16;20.80;99.90
16871;DHT22;8552;48.120;-1.456;2022-07-29T06:57:45;21.00;99.90
16871;DHT22;8552;48.120;-1.456;2022-07-29T07:00:11;21.10;97.80
16871;DHT22;8552;48.120;-1.456;2022-07-29T07:02:37;21.20;97.80
16871;DHT22;8552;48.120;-1.456;2022-07-29T07:05:03;21.20;96.80
16871;DHT22;8552;48.120;-1.456;2022-07-29T07:07:30;21.30;97.80
16871;DHT22;8552;48.120;-1.456;2022-07-29T07:09:56;21.30;96.60
16871;DHT22;8552;48.120;-1.456;2022-07-29T07:12:22;21.50;96.70
16871;DHT22;8552;48.120;-1.456;2022-07-29T07:14:48;21.50;96.60
16871;DHT22;8552;48.120;-1.456;2022-07-29T07:17:13;21.70;96.10
16871;DHT22;8552;48.120;-1.456;2022-07-29T07:19:39;21.80;96.20
16871;DHT22;8552;48.120;-1.456;2022-07-29T07:22:05;21.80;96.00
16871;DHT22;8552;48.120;-1.456;2022-07-29T07:24:30;21.90;95.10
16871;DHT22;8552;48.120;-1.456;2022-07-29T07:26:56;22.00;95.20
16871;DHT22;8552;48.120;-1.456;2022-07-29T07:29:22;22.00;94.50
16871;DHT22;8552;48.120;-1.456;2022-07-29T07:31:47;22.20;94.40
16871;DHT22;8552;48.120;-1.456;2022-07-29T07:34:13;22.20;94.10
16871;DHT22;8552;48.120;-1.456;2022-07-29T07:36:39;22.50;94.80
16871;DHT22;8552;48.120;-1.456;2022-07-29T07:39:04;22.60;93.90
16871;DHT22;8552;48.120;-1.456;2022-07-29T07:41:30;22.80;94.30
16871;DHT22;8552;48.120;-1.456;2022-07-29T07:43:56;22.90;93.50
16871;DHT22;8552;48.120;-1.456;2022-07-29T07:46:22;23.10;93.50
16871;DHT22;8552;48.120;-1.456;2022-07-29T07:48:48;23.10;93.90
16871;DHT22;8552;48.120;-1.456;2022-07-29T07:51:13;23.20;92.90
16871;DHT22;8552;48.120;-1.456;2022-07-29T07:53:39;23.30;92.30
16871;DHT22;8552;48.120;-1.456;2022-07-29T07:56:05;23.30;91.80
16871;DHT22;8552;48.120;-1.456;2022-07-29T07:58:32;23.50;92.50
16871;DHT22;8552;48.120;-1.456;2022-07-29T08:00:58;23.60;91.70
16871;DHT22;8552;48.120;-1.456;2022-07-29T08:03:23;23.70;92.60
16871;DHT22;8552;48.120;-1.456;2022-07-29T08:05:49;23.80;92.70
16871;DHT22;8552;48.120;-1.456;2022-07-29T08:08:17;23.80;92.20
16871;DHT22;8552;48.120;-1.456;2022-07-29T08:10:42;23.90;91.60
16871;DHT22;8552;48.120;-1.456;2022-07-29T08:13:19;23.90;91.70
16871;DHT22;8552;48.120;-1.456;2022-07-29T08:15:44;23.80;90.80
16871;DHT22;8552;48.120;-1.456;2022-07-29T08:18:14;23.90;90.90
16871;DHT22;8552;48.120;-1.456;2022-07-29T08:20:40;23.90;91.60
16871;DHT22;8552;48.120;-1.456;2022-07-29T08:23:07;24.00;90.50
16871;DHT22;8552;48.120;-1.456;2022-07-29T08:25:36;24.00;91.30
16871;DHT22;8552;48.120;-1.456;2022-07-29T08:28:04;24.10;91.00
16871;DHT22;8552;48.120;-1.456;2022-07-29T08:30:30;24.20;90.90
16871;DHT22;8552;48.120;-1.456;2022-07-29T08:32:55;24.30;91.40
16871;DHT22;8552;48.120;-1.456;2022-07-29T08:35:22;24.40;89.90
16871;DHT22;8552;48.120;-1.456;2022-07-29T08:37:48;24.50;90.60
16871;DHT22;8552;48.120;-1.456;2022-07-29T08:40:14;24.60;90.70
16871;DHT22;8552;48.120;-1.456;2022-07-29T08:42:40;24.70;90.30
16871;DHT22;8552;48.120;-1.456;2022-07-29T08:45:06;24.70;90.00
16871;DHT22;8552;48.120;-1.456;2022-07-29T08:47:33;24.80;89.10
16871;DHT22;8552;48.120;-1.456;2022-07-29T08:50:01;24.80;89.20
16871;DHT22;8552;48.120;-1.456;2022-07-29T08:52:28;24.90;90.20
16871;DHT22;8552;48.120;-1.456;2022-07-29T08:54:58;24.80;89.00
16871;DHT22;8552;48.120;-1.456;2022-07-29T08:57:25;24.70;89.50
16871;DHT22;8552;48.120;-1.456;2022-07-29T08:59:52;24.80;88.90
16871;DHT22;8552;48.120;-1.456;2022-07-29T09:02:21;24.90;89.10
16871;DHT22;8552;48.120;-1.456;2022-07-29T09:04:48;25.00;87.10
16871;DHT22;8552;48.120;-1.456;2022-07-29T09:07:18;25.10;87.20
16871;DHT22;8552;48.120;-1.456;2022-07-29T09:09:44;24.90;87.30
16871;DHT22;8552;48.120;-1.456;2022-07-29T09:12:11;25.10;88.00
16871;DHT22;8552;48.120;-1.456;2022-07-29T09:14:38;25.20;86.60
16871;DHT22;8552;48.120;-1.456;2022-07-29T09:17:04;25.00;87.40
16871;DHT22;8552;48.120;-1.456;2022-07-29T09:19:31;25.20;86.40
16871;DHT22;8552;48.120;-1.456;2022-07-29T09:22:00;25.30;84.90
16871;DHT22;8552;48.120;-1.456;2022-07-29T09:24:27;25.50;84.00
16871;DHT22;8552;48.120;-1.456;2022-07-29T09:26:53;25.60;84.30
16871;DHT22;8552;48.120;-1.456;2022-07-29T09:29:21;25.60;85.30
16871;DHT22;8552;48.120;-1.456;2022-07-29T09:31:52;25.70;85.20
16871;DHT22;8552;48.120;-1.456;2022-07-29T09:34:26;25.80;83.90
16871;DHT22;8552;48.120;-1.456;2022-07-29T09:36:54;25.80;82.60
16871;DHT22;8552;48.120;-1.456;2022-07-29T09:39:37;25.80;84.40
16871;DHT22;8552;48.120;-1.456;2022-07-29T09:42:05;26.00;82.20
16871;DHT22;8552;48.120;-1.456;2022-07-29T09:44:57;26.10;83.30
16871;DHT22;8552;48.120;-1.456;2022-07-29T09:47:44;26.30;84.90
16871;DHT22;8552;48.120;-1.456;2022-07-29T09:50:15;26.40;83.30
16871;DHT22;8552;48.120;-1.456;2022-07-29T09:52:48;26.60;82.20
16871;DHT22;8552;48.120;-1.456;2022-07-29T09:55:15;26.80;82.50
16871;DHT22;8552;48.120;-1.456;2022-07-29T09:57:41;27.00;79.80
16871;DHT22;8552;48.120;-1.456;2022-07-29T10:00:12;27.20;80.40
16871;DHT22;8552;48.120;-1.456;2022-07-29T10:02:40;27.20;78.50
16871;DHT22;8552;48.120;-1.456;2022-07-29T10:05:19;27.60;78.30
16871;DHT22;8552;48.120;-1.456;2022-07-29T10:07:56;27.70;77.30
16871;DHT22;8552;48.120;-1.456;2022-07-29T10:10:27;27.90;74.70
16871;DHT22;8552;48.120;-1.456;2022-07-29T10:12:58;28.00;75.80
16871;DHT22;8552;48.120;-1.456;2022-07-29T10:15:26;28.60;74.50
16871;DHT22;8552;48.120;-1.456;2022-07-29T10:17:53;28.30;71.50
16871;DHT22;8552;48.120;-1.456;2022-07-29T10:20:20;28.30;71.70
16871;DHT22;8552;48.120;-1.456;2022-07-29T10:22:48;28.90;69.80
16871;DHT22;8552;48.120;-1.456;2022-07-29T10:25:16;28.80;67.50
16871;DHT22;8552;48.120;-1.456;2022-07-29T10:27:43;28.90;69.20
16871;DHT22;8552;48.120;-1.456;2022-07-29T10:30:11;29.10;72.10
16871;DHT22;8552;48.120;-1.456;2022-07-29T10:35:51;29.60;67.30
16871;DHT22;8552;48.120;-1.456;2022-07-29T10:38:44;29.50;66.30
16871;DHT22;8552;48.120;-1.456;2022-07-29T10:44:17;29.50;65.20
16871;DHT22;8552;48.120;-1.456;2022-07-29T10:46:45;29.60;65.40
16871;DHT22;8552;48.120;-1.456;2022-07-29T10:54:43;30.00;63.20
16871;DHT22;8552;48.120;-1.456;2022-07-29T10:57:28;30.20;64.30
16871;DHT22;8552;48.120;-1.456;2022-07-29T11:05:13;30.70;62.00
16871;DHT22;8552;48.120;-1.456;2022-07-29T11:10:40;31.00;62.60
16871;DHT22;8552;48.120;-1.456;2022-07-29T11:13:07;30.80;60.80
16871;DHT22;8552;48.120;-1.456;2022-07-29T11:15:53;31.00;59.90
16871;DHT22;8552;48.120;-1.456;2022-07-29T11:18:19;31.00;59.20
16871;DHT22;8552;48.120;-1.456;2022-07-29T11:20:49;30.90;59.50
16871;DHT22;8552;48.120;-1.456;2022-07-29T11:23:53;30.80;58.40
16871;DHT22;8552;48.120;-1.456;2022-07-29T11:26:17;30.30;59.10
16871;DHT22;8552;48.120;-1.456;2022-07-29T11:29:04;30.60;62.00
16871;DHT22;8552;48.120;-1.456;2022-07-29T11:31:43;30.90;58.50
16871;DHT22;8552;48.120;-1.456;2022-07-29T11:34:26;31.20;58.90
16871;DHT22;8552;48.120;-1.456;2022-07-29T11:39:35;31.60;60.00
16871;DHT22;8552;48.120;-1.456;2022-07-29T11:44:58;31.80;58.10
16871;DHT22;8552;48.120;-1.456;2022-07-29T11:47:26;31.80;56.70
16871;DHT22;8552;48.120;-1.456;2022-07-29T11:49:54;31.90;57.20
16871;DHT22;8552;48.120;-1.456;2022-07-29T11:52:20;31.90;55.70
16871;DHT22;8552;48.120;-1.456;2022-07-29T11:54:50;31.80;55.60
16871;DHT22;8552;48.120;-1.456;2022-07-29T11:57:18;31.90;56.80
16871;DHT22;8552;48.120;-1.456;2022-07-29T11:59:45;32.00;56.10
16871;DHT22;8552;48.120;-1.456;2022-07-29T12:02:12;31.70;56.60
16871;DHT22;8552;48.120;-1.456;2022-07-29T12:04:55;31.80;58.60
16871;DHT22;8552;48.120;-1.456;2022-07-29T12:07:31;31.20;52.00
16871;DHT22;8552;48.120;-1.456;2022-07-29T12:09:58;31.20;51.80
16871;DHT22;8552;48.120;-1.456;2022-07-29T12:12:23;31.30;51.50
16871;DHT22;8552;48.120;-1.456;2022-07-29T12:14:49;31.30;52.70
16871;DHT22;8552;48.120;-1.456;2022-07-29T12:17:32;31.20;51.60
16871;DHT22;8552;48.120;-1.456;2022-07-29T12:20:03;31.40;52.80
16871;DHT22;8552;48.120;-1.456;2022-07-29T12:22:32;31.60;50.80
16871;DHT22;8552;48.120;-1.456;2022-07-29T12:25:12;31.20;50.50
16871;DHT22;8552;48.120;-1.456;2022-07-29T12:27:41;31.60;52.10
16871;DHT22;8552;48.120;-1.456;2022-07-29T12:30:14;32.20;49.60
16871;DHT22;8552;48.120;-1.456;2022-07-29T12:32:47;32.70;51.00
16871;DHT22;8552;48.120;-1.456;2022-07-29T12:35:19;32.20;49.10
16871;DHT22;8552;48.120;-1.456;2022-07-29T12:37:47;32.70;48.90
16871;DHT22;8552;48.120;-1.456;2022-07-29T12:40:17;32.60;48.70
16871;DHT22;8552;48.120;-1.456;2022-07-29T12:43:10;32.50;47.70
16871;DHT22;8552;48.120;-1.456;2022-07-29T12:45:42;32.10;47.30
16871;DHT22;8552;48.120;-1.456;2022-07-29T12:48:15;32.00;48.70
16871;DHT22;8552;48.120;-1.456;2022-07-29T12:51:01;32.30;51.40
16871;DHT22;8552;48.120;-1.456;2022-07-29T12:53:33;32.90;50.30
16871;DHT22;8552;48.120;-1.456;2022-07-29T12:56:02;33.10;48.90
16871;DHT22;8552;48.120;-1.456;2022-07-29T12:58:36;33.10;46.90
16871;DHT22;8552;48.120;-1.456;2022-07-29T13:01:09;32.40;48.00
16871;DHT22;8552;48.120;-1.456;2022-07-29T13:03:47;32.00;48.00
16871;DHT22;8552;48.120;-1.456;2022-07-29T13:06:37;31.80;47.70
16871;DHT22;8552;48.120;-1.456;2022-07-29T13:11:44;31.50;50.20
16871;DHT22;8552;48.120;-1.456;2022-07-29T13:14:37;32.10;51.10
16871;DHT22;8552;48.120;-1.456;2022-07-29T13:17:13;32.60;49.90
16871;DHT22;8552;48.120;-1.456;2022-07-29T13:20:03;32.90;49.30
16871;DHT22;8552;48.120;-1.456;2022-07-29T13:22:33;32.70;47.50
16871;DHT22;8552;48.120;-1.456;2022-07-29T13:25:07;33.00;50.00
16871;DHT22;8552;48.120;-1.456;2022-07-29T13:27:38;33.60;49.70
16871;DHT22;8552;48.120;-1.456;2022-07-29T13:30:14;33.20;47.30
16871;DHT22;8552;48.120;-1.456;2022-07-29T13:32:43;32.70;48.00
16871;DHT22;8552;48.120;-1.456;2022-07-29T13:35:18;32.90;48.40
16871;DHT22;8552;48.120;-1.456;2022-07-29T13:37:48;33.30;47.40
16871;DHT22;8552;48.120;-1.456;2022-07-29T13:40:18;32.80;47.20
16871;DHT22;8552;48.120;-1.456;2022-07-29T13:42:48;32.80;48.00
16871;DHT22;8552;48.120;-1.456;2022-07-29T13:45:18;33.40;49.50
16871;DHT22;8552;48.120;-1.456;2022-07-29T13:47:54;33.80;49.50
16871;DHT22;8552;48.120;-1.456;2022-07-29T13:50:21;34.10;47.00
16871;DHT22;8552;48.120;-1.456;2022-07-29T13:52:50;34.30;46.10
16871;DHT22;8552;48.120;-1.456;2022-07-29T13:55:21;33.90;45.80
16871;DHT22;8552;48.120;-1.456;2022-07-29T13:57:50;34.40;46.70
16871;DHT22;8552;48.120;-1.456;2022-07-29T14:00:20;34.90;45.60
16871;DHT22;8552;48.120;-1.456;2022-07-29T14:02:51;34.70;44.50
16871;DHT22;8552;48.120;-1.456;2022-07-29T14:05:21;35.10;47.40
16871;DHT22;8552;48.120;-1.456;2022-07-29T14:07:49;34.70;43.70
16871;DHT22;8552;48.120;-1.456;2022-07-29T14:10:18;34.30;45.10
16871;DHT22;8552;48.120;-1.456;2022-07-29T14:12:48;33.70;46.30
16871;DHT22;8552;48.120;-1.456;2022-07-29T14:15:17;34.40;45.80
16871;DHT22;8552;48.120;-1.456;2022-07-29T14:17:46;33.80;43.60
16871;DHT22;8552;48.120;-1.456;2022-07-29T14:20:14;33.80;44.90
16871;DHT22;8552;48.120;-1.456;2022-07-29T14:22:43;34.20;46.90
16871;DHT22;8552;48.120;-1.456;2022-07-29T14:25:14;34.70;46.30
16871;DHT22;8552;48.120;-1.456;2022-07-29T14:27:43;34.60;45.20
16871;DHT22;8552;48.120;-1.456;2022-07-29T14:30:13;34.40;44.20
16871;DHT22;8552;48.120;-1.456;2022-07-29T14:32:42;34.80;44.50
16871;DHT22;8552;48.120;-1.456;2022-07-29T14:35:08;34.80;44.20
16871;DHT22;8552;48.120;-1.456;2022-07-29T14:37:34;34.20;44.00
16871;DHT22;8552;48.120;-1.456;2022-07-29T14:40:01;34.70;44.20
16871;DHT22;8552;48.120;-1.456;2022-07-29T14:42:29;34.50;45.60
16871;DHT22;8552;48.120;-1.456;2022-07-29T14:44:55;34.60;44.10
16871;DHT22;8552;48.120;-1.456;2022-07-29T14:47:20;34.10;44.30
16871;DHT22;8552;48.120;-1.456;2022-07-29T14:49:47;34.40;44.40
16871;DHT22;8552;48.120;-1.456;2022-07-29T14:52:13;34.90;43.40
16871;DHT22;8552;48.120;-1.456;2022-07-29T14:54:38;34.80;42.80
16871;DHT22;8552;48.120;-1.456;2022-07-29T14:57:04;35.20;43.10
16871;DHT22;8552;48.120;-1.456;2022-07-29T14:59:29;35.50;42.80
16871;DHT22;8552;48.120;-1.456;2022-07-29T15:01:55;34.80;42.30
16871;DHT22;8552;48.120;-1.456;2022-07-29T15:04:21;35.00;43.50
16871;DHT22;8552;48.120;-1.456;2022-07-29T15:06:47;35.00;42.90
16871;DHT22;8552;48.120;-1.456;2022-07-29T15:09:13;34.60;44.50
16871;DHT22;8552;48.120;-1.456;2022-07-29T15:11:39;34.70;43.20
16871;DHT22;8552;48.120;-1.456;2022-07-29T15:14:05;34.60;44.30
16871;DHT22;8552;48.120;-1.456;2022-07-29T15:16:31;34.50;42.50
16871;DHT22;8552;48.120;-1.456;2022-07-29T15:18:57;33.80;45.30
16871;DHT22;8552;48.120;-1.456;2022-07-29T15:21:23;33.80;42.80
16871;DHT22;8552;48.120;-1.456;2022-07-29T15:23:49;33.70;43.40
16871;DHT22;8552;48.120;-1.456;2022-07-29T15:26:15;33.60;44.10
16871;DHT22;8552;48.120;-1.456;2022-07-29T15:28:40;33.60;44.60
16871;DHT22;8552;48.120;-1.456;2022-07-29T15:31:06;33.50;43.60
16871;DHT22;8552;48.120;-1.456;2022-07-29T15:33:32;33.20;44.50
16871;DHT22;8552;48.120;-1.456;2022-07-29T15:35:57;32.90;44.90
16871;DHT22;8552;48.120;-1.456;2022-07-29T15:38:23;32.90;45.70
16871;DHT22;8552;48.120;-1.456;2022-07-29T15:40:49;32.90;45.30
16871;DHT22;8552;48.120;-1.456;2022-07-29T15:43:15;32.80;45.70
16871;DHT22;8552;48.120;-1.456;2022-07-29T15:45:43;32.70;46.00
16871;DHT22;8552;48.120;-1.456;2022-07-29T15:48:28;32.60;46.10
16871;DHT22;8552;48.120;-1.456;2022-07-29T15:50:55;32.50;46.20
16871;DHT22;8552;48.120;-1.456;2022-07-29T15:53:22;32.80;45.90
16871;DHT22;8552;48.120;-1.456;2022-07-29T15:55:49;33.20;47.10
16871;DHT22;8552;48.120;-1.456;2022-07-29T15:58:16;33.50;44.60
16871;DHT22;8552;48.120;-1.456;2022-07-29T16:00:43;33.30;45.30
16871;DHT22;8552;48.120;-1.456;2022-07-29T16:03:09;33.20;45.20
16871;DHT22;8552;48.120;-1.456;2022-07-29T16:05:35;33.50;46.70
16871;DHT22;8552;48.120;-1.456;2022-07-29T16:08:01;33.90;44.90
16871;DHT22;8552;48.120;-1.456;2022-07-29T16:10:27;34.20;44.50
16871;DHT22;8552;48.120;-1.456;2022-07-29T16:12:52;34.40;44.20
16871;DHT22;8552;48.120;-1.456;2022-07-29T16:15:18;34.60;43.90
16871;DHT22;8552;48.120;-1.456;2022-07-29T16:17:44;34.60;45.40
16871;DHT22;8552;48.120;-1.456;2022-07-29T16:20:10;34.70;43.50
16871;DHT22;8552;48.120;-1.456;2022-07-29T16:22:35;34.70;43.00